createdAt,value
2018-12-04T00:00:01.272Z,47.37
2018-12-04T00:01:01.256Z,47.67
2018-12-04T00:02:01.444Z,47.67
2018-12-04T00:03:01.239Z,47.57
2018-12-04T00:04:01.221Z,47.27
2018-12-04T00:05:01.213Z,47.27
2018-12-04T00:06:01.204Z,47.07
2018-12-04T00:07:01.442Z,47.37
2018-12-04T00:08:01.930Z,47.27
2018-12-04T00:09:01.183Z,47.37
2018-12-04T00:10:01.157Z,47.27
2018-12-04T00:11:01.153Z,47.27
2018-12-04T00:12:01.158Z,46.87
2018-12-04T00:13:01.130Z,47.07
2018-12-04T00:14:01.112Z,46.87
2018-12-04T00:15:01.934Z,47.07
2018-12-04T00:16:01.094Z,47.07
2018-12-04T00:17:01.103Z,47.07
2018-12-04T00:18:01.069Z,47.27
2018-12-04T00:19:01.061Z,47.47
2018-12-04T00:20:01.929Z,47.07
2018-12-04T00:21:01.040Z,47.37
2018-12-04T00:22:01.443Z,47.37
2018-12-04T00:23:01.029Z,46.87
2018-12-04T00:24:01.006Z,47.27
2018-12-04T00:25:01.000Z,46.69
2018-12-04T00:26:00.987Z,46.69
2018-12-04T00:27:01.009Z,46.47
2018-12-04T00:28:00.962Z,46.67
2018-12-04T00:29:00.950Z,46.67
2018-12-04T00:30:00.941Z,47.07
2018-12-04T00:31:00.931Z,46.87
2018-12-04T00:32:00.935Z,46.57
2018-12-04T00:33:01.426Z,46.87
2018-12-04T00:34:00.896Z,46.87
2018-12-04T00:35:00.886Z,46.89
2018-12-04T00:36:00.877Z,47.17
2018-12-04T00:37:00.960Z,46.97
2018-12-04T00:38:01.426Z,46.77
2018-12-04T00:39:01.768Z,46.67
2018-12-04T00:40:00.832Z,46.77
2018-12-04T00:41:00.818Z,46.97
2018-12-04T00:42:00.869Z,46.87
2018-12-04T00:43:00.939Z,46.67
2018-12-04T00:44:01.426Z,46.97
2018-12-04T00:45:00.775Z,46.87
2018-12-04T00:46:00.777Z,46.77
2018-12-04T00:47:00.760Z,46.67
2018-12-04T00:48:00.772Z,46.77
2018-12-04T00:49:00.735Z,46.87
2018-12-04T00:50:00.719Z,46.67
2018-12-04T00:51:00.709Z,46.77
2018-12-04T00:52:00.702Z,46.67
2018-12-04T00:53:00.763Z,47.07
2018-12-04T00:54:00.675Z,46.77
2018-12-04T00:55:01.429Z,46.97
2018-12-04T00:56:00.660Z,46.57
2018-12-04T00:57:00.646Z,46.57
2018-12-04T00:58:00.683Z,46.87
2018-12-04T00:59:00.624Z,46.97
2018-12-04T01:00:00.616Z,46.67
2018-12-04T01:01:00.601Z,46.97
2018-12-04T01:02:01.426Z,46.87
2018-12-04T01:03:00.950Z,46.57
2018-12-04T01:04:00.568Z,46.77
2018-12-04T01:05:00.559Z,46.57
2018-12-04T01:06:00.547Z,46.97
2018-12-04T01:07:00.533Z,46.37
2018-12-04T01:08:00.549Z,46.57
2018-12-04T01:09:00.512Z,46.57
2018-12-04T01:10:00.501Z,47.07
2018-12-04T01:11:01.435Z,47.07
2018-12-04T01:12:00.481Z,46.67
2018-12-04T01:13:00.946Z,46.87
2018-12-04T01:14:00.455Z,46.57
2018-12-04T01:15:00.447Z,46.67
2018-12-04T01:16:00.443Z,46.57
2018-12-04T01:17:00.428Z,46.57
2018-12-04T01:18:00.444Z,46.67
2018-12-04T01:19:00.407Z,46.59
2018-12-04T01:20:00.393Z,46.59
2018-12-04T01:21:00.385Z,46.47
2018-12-04T01:22:01.143Z,46.67
2018-12-04T01:23:00.406Z,46.57
2018-12-04T01:24:00.956Z,46.57
2018-12-04T01:25:00.343Z,46.77
2018-12-04T01:26:00.333Z,46.57
2018-12-04T01:27:00.323Z,46.67
2018-12-04T01:28:00.331Z,47.27
2018-12-04T01:29:00.305Z,47.27
2018-12-04T01:30:00.292Z,47.17
2018-12-04T01:31:00.273Z,46.97
2018-12-04T01:32:00.264Z,47.07
2018-12-04T01:33:00.275Z,46.37
2018-12-04T01:34:00.934Z,46.97
2018-12-04T01:35:00.933Z,46.17
2018-12-04T01:36:00.220Z,46.37
2018-12-04T01:37:00.213Z,46.97
2018-12-04T01:38:00.219Z,46.17
2018-12-04T01:39:00.191Z,46.27
2018-12-04T01:40:00.178Z,46.47
2018-12-04T01:41:00.935Z,46.27
2018-12-04T01:42:00.161Z,46.17
2018-12-04T01:43:00.162Z,46.77
2018-12-04T01:44:00.135Z,46.47
2018-12-04T01:45:00.124Z,46.47
2018-12-04T01:46:00.107Z,46.77
2018-12-04T01:47:00.931Z,46.77
2018-12-04T01:48:00.158Z,46.47
2018-12-04T01:49:00.119Z,46.57
2018-12-04T01:50:00.070Z,46.57
2018-12-04T01:51:00.059Z,46.57
2018-12-04T01:52:00.935Z,46.57
2018-12-04T01:53:00.048Z,46.57
2018-12-04T01:54:00.042Z,46.57
2018-12-04T01:55:00.017Z,46.57
2018-12-04T01:56:00.008Z,46.57
2018-12-04T01:57:00.935Z,46.57
2018-12-04T01:57:59.999Z,46.57
2018-12-04T01:59:00.943Z,46.57
2018-12-04T01:59:59.961Z,46.57
2018-12-04T02:00:59.949Z,46.47
2018-12-04T02:01:59.939Z,46.67
2018-12-04T02:02:59.953Z,46.77
2018-12-04T02:04:00.435Z,46.37
2018-12-04T02:04:59.910Z,46.57
2018-12-04T02:06:00.430Z,46.57
2018-12-04T02:06:59.882Z,46.77
2018-12-04T02:07:59.899Z,46.47
2018-12-04T02:08:59.867Z,46.57
2018-12-04T02:09:59.855Z,46.47
2018-12-04T02:11:00.434Z,46.17
2018-12-04T02:11:59.832Z,46.37
2018-12-04T02:12:59.947Z,46.57
2018-12-04T02:14:00.438Z,46.17
2018-12-04T02:14:59.804Z,46.07
2018-12-04T02:15:59.787Z,46.17
2018-12-04T02:16:59.774Z,46.17
2018-12-04T02:17:59.785Z,46.57
2018-12-04T02:18:59.754Z,46.57
2018-12-04T02:19:59.736Z,46.17
2018-12-04T02:20:59.733Z,46.17
2018-12-04T02:21:59.717Z,46.17
2018-12-04T02:22:59.726Z,46.17
2018-12-04T02:24:00.433Z,46.17
2018-12-04T02:24:59.686Z,46.17
2018-12-04T02:25:59.673Z,46.07
2018-12-04T02:26:59.672Z,46.17
2018-12-04T02:27:59.949Z,46.27
2018-12-04T02:29:00.433Z,46.17
2018-12-04T02:29:59.628Z,46.27
2018-12-04T02:30:59.622Z,46.27
2018-12-04T02:31:59.609Z,46.27
2018-12-04T02:32:59.973Z,46.27
2018-12-04T02:33:59.591Z,46.17
2018-12-04T02:34:59.584Z,46.27
2018-12-04T02:35:59.563Z,46.27
2018-12-04T02:37:00.441Z,46.27
2018-12-04T02:37:59.982Z,46.27
2018-12-04T02:38:59.535Z,46.47
2018-12-04T02:40:00.461Z,46.37
2018-12-04T02:40:59.508Z,46.37
2018-12-04T02:41:59.496Z,46.47
2018-12-04T02:42:59.509Z,46.17
2018-12-04T02:43:59.476Z,46.37
2018-12-04T02:44:59.465Z,46.37
2018-12-04T02:45:59.455Z,46.37
2018-12-04T02:47:00.442Z,45.97
2018-12-04T02:47:59.478Z,46.67
2018-12-04T02:48:59.419Z,46.67
2018-12-04T02:49:59.419Z,46.37
2018-12-04T02:50:59.958Z,46.57
2018-12-04T02:51:59.942Z,46.47
2018-12-04T02:52:59.373Z,46.35
2018-12-04T02:53:59.537Z,46.57
2018-12-04T02:54:59.356Z,46.55
2018-12-04T02:55:59.347Z,46.47
2018-12-04T02:56:59.334Z,46.25
2018-12-04T02:57:59.333Z,46.27
2018-12-04T02:58:59.326Z,46.25
2018-12-04T02:59:59.300Z,46.85
2018-12-04T03:00:59.291Z,45.85
2018-12-04T03:01:59.278Z,45.95
2018-12-04T03:02:59.267Z,46.37
2018-12-04T03:03:59.457Z,46.27
2018-12-04T03:04:59.244Z,46.05
2018-12-04T03:05:59.938Z,46.27
2018-12-04T03:06:59.218Z,46.07
2018-12-04T03:07:59.210Z,46.17
2018-12-04T03:08:59.370Z,46.15
2018-12-04T03:09:59.945Z,46.07
2018-12-04T03:10:59.937Z,45.97
2018-12-04T03:11:59.937Z,46.37
2018-12-04T03:12:59.163Z,46.17
2018-12-04T03:13:59.260Z,46.47
2018-12-04T03:14:59.136Z,46.47
2018-12-04T03:15:59.134Z,46.37
2018-12-04T03:16:59.117Z,46.05
2018-12-04T03:17:59.099Z,45.95
2018-12-04T03:18:59.105Z,46.37
2018-12-04T03:19:59.077Z,46.07
2018-12-04T03:20:59.937Z,46.17
2018-12-04T03:21:59.065Z,46.25
2018-12-04T03:22:59.045Z,45.97
2018-12-04T03:23:59.054Z,45.87
2018-12-04T03:24:59.940Z,46.37
2018-12-04T03:25:59.941Z,45.97
2018-12-04T03:26:59.002Z,45.97
2018-12-04T03:27:58.999Z,45.97
2018-12-04T03:28:59.455Z,45.97
2018-12-04T03:29:58.969Z,46.07
2018-12-04T03:30:58.961Z,45.97
2018-12-04T03:31:58.964Z,45.97
2018-12-04T03:32:58.950Z,46.27
2018-12-04T03:33:58.947Z,45.87
2018-12-04T03:34:58.914Z,45.87
2018-12-04T03:35:58.902Z,45.87
2018-12-04T03:36:58.889Z,45.77
2018-12-04T03:37:58.883Z,45.87
2018-12-04T03:38:59.657Z,45.87
2018-12-04T03:39:58.870Z,45.77
2018-12-04T03:40:58.994Z,45.97
2018-12-04T03:41:59.436Z,45.87
2018-12-04T03:42:58.827Z,46.17
2018-12-04T03:43:58.955Z,45.77
2018-12-04T03:44:58.825Z,45.77
2018-12-04T03:45:58.797Z,45.87
2018-12-04T03:46:59.443Z,45.87
2018-12-04T03:47:58.773Z,46.07
2018-12-04T03:48:59.070Z,45.77
2018-12-04T03:49:58.761Z,45.57
2018-12-04T03:50:58.750Z,45.77
2018-12-04T03:51:59.443Z,45.87
2018-12-04T03:52:58.718Z,45.47
2018-12-04T03:53:58.728Z,45.67
2018-12-04T03:54:59.440Z,45.65
2018-12-04T03:55:58.693Z,45.67
2018-12-04T03:56:58.679Z,45.57
2018-12-04T03:57:58.661Z,45.65
2018-12-04T03:58:58.683Z,45.37
2018-12-04T03:59:58.641Z,45.75
2018-12-04T04:00:58.630Z,45.67
2018-12-04T04:01:59.489Z,45.67
2018-12-04T04:02:58.607Z,45.67
2018-12-04T04:03:58.962Z,45.65
2018-12-04T04:04:59.447Z,45.87
2018-12-04T04:05:58.587Z,45.87
2018-12-04T04:06:58.738Z,45.85
2018-12-04T04:07:58.554Z,45.97
2018-12-04T04:08:58.557Z,45.85
2018-12-04T04:09:58.530Z,45.77
2018-12-04T04:10:58.519Z,45.75
2018-12-04T04:12:00.640Z,45.87
2018-12-04T04:12:58.498Z,45.77
2018-12-04T04:13:58.514Z,45.97
2018-12-04T04:14:58.486Z,45.77
2018-12-04T04:15:58.466Z,45.77
2018-12-04T04:16:59.443Z,45.77
2018-12-04T04:17:58.442Z,45.97
2018-12-04T04:18:58.774Z,45.77
2018-12-04T04:19:58.420Z,45.77
2018-12-04T04:20:58.410Z,45.75
2018-12-04T04:21:58.420Z,45.45
2018-12-04T04:22:58.386Z,45.55
2018-12-04T04:23:58.397Z,45.55
2018-12-04T04:24:58.364Z,45.55
2018-12-04T04:25:58.944Z,45.25
2018-12-04T04:26:58.399Z,45.55
2018-12-04T04:27:58.335Z,45.45
2018-12-04T04:28:58.460Z,45.25
2018-12-04T04:29:58.312Z,45.25
2018-12-04T04:30:58.300Z,45.25
2018-12-04T04:31:58.951Z,45.15
2018-12-04T04:32:58.278Z,45.25
2018-12-04T04:33:58.287Z,45.25
2018-12-04T04:34:58.253Z,45.35
2018-12-04T04:35:58.249Z,45.45
2018-12-04T04:36:58.943Z,45.45
2018-12-04T04:37:58.941Z,45.65
2018-12-04T04:38:58.963Z,45.75
2018-12-04T04:39:58.949Z,45.55
2018-12-04T04:40:58.943Z,45.45
2018-12-04T04:41:58.177Z,45.45
2018-12-04T04:42:58.174Z,45.85
2018-12-04T04:43:58.458Z,45.25
2018-12-04T04:44:58.144Z,45.35
2018-12-04T04:45:58.958Z,45.35
2018-12-04T04:46:58.123Z,45.43
2018-12-04T04:47:58.943Z,45.45
2018-12-04T04:48:58.127Z,45.45
2018-12-04T04:49:58.947Z,45.45
2018-12-04T04:50:58.083Z,45.05
2018-12-04T04:51:58.063Z,44.73
2018-12-04T04:52:58.053Z,44.93
2018-12-04T04:53:58.065Z,44.93
2018-12-04T04:54:58.221Z,44.93
2018-12-04T04:55:58.022Z,44.85
2018-12-04T04:56:58.012Z,44.83
2018-12-04T04:57:58.945Z,44.85
2018-12-04T04:58:57.998Z,44.73
2018-12-04T04:59:58.008Z,44.93
2018-12-04T05:00:58.944Z,44.93
2018-12-04T05:01:57.959Z,44.73
2018-12-04T05:02:58.447Z,44.83
2018-12-04T05:03:57.932Z,44.73
2018-12-04T05:04:57.953Z,44.83
2018-12-04T05:05:57.917Z,44.63
2018-12-04T05:06:57.917Z,44.63
2018-12-04T05:07:58.444Z,43.93
2018-12-04T05:08:58.478Z,44.73
2018-12-04T05:09:57.902Z,44.73
2018-12-04T05:10:58.452Z,44.63
2018-12-04T05:11:57.855Z,44.13
2018-12-04T05:12:57.844Z,44.73
2018-12-04T05:13:57.834Z,44.63
2018-12-04T05:14:57.959Z,43.93
2018-12-04T05:15:57.809Z,44.63
2018-12-04T05:16:57.795Z,44.73
2018-12-04T05:17:57.784Z,44.43
2018-12-04T05:18:57.772Z,43.83
2018-12-04T05:19:57.955Z,43.83
2018-12-04T05:20:57.752Z,43.93
2018-12-04T05:21:58.448Z,44.73
2018-12-04T05:22:57.730Z,44.03
2018-12-04T05:23:58.447Z,43.93
2018-12-04T05:24:57.962Z,43.93
2018-12-04T05:25:57.697Z,44.53
2018-12-04T05:26:57.693Z,43.83
2018-12-04T05:27:57.675Z,43.93
2018-12-04T05:28:57.671Z,43.93
2018-12-04T05:29:57.970Z,43.93
2018-12-04T05:30:58.458Z,44.75
2018-12-04T05:31:57.640Z,43.83
2018-12-04T05:32:57.619Z,44.63
2018-12-04T05:33:57.623Z,44.93
2018-12-04T05:34:57.628Z,43.95
2018-12-04T05:35:58.447Z,44.53
2018-12-04T05:36:57.573Z,43.93
2018-12-04T05:37:57.566Z,44.63
2018-12-04T05:38:57.575Z,44.13
2018-12-04T05:39:57.565Z,44.55
2018-12-04T05:40:58.450Z,44.53
2018-12-04T05:41:58.445Z,44.63
2018-12-04T05:42:58.452Z,43.93
2018-12-04T05:43:58.519Z,44.63
2018-12-04T05:44:57.960Z,44.75
2018-12-04T05:45:58.444Z,44.75
2018-12-04T05:46:57.463Z,44.65
2018-12-04T05:47:57.455Z,44.75
2018-12-04T05:48:57.454Z,44.75
2018-12-04T05:49:57.465Z,44.63
2018-12-04T05:50:57.423Z,44.95
2018-12-04T05:51:57.951Z,44.53
2018-12-04T05:52:57.407Z,44.63
2018-12-04T05:53:57.394Z,44.85
2018-12-04T05:54:57.411Z,44.65
2018-12-04T05:55:57.372Z,44.83
2018-12-04T05:56:57.951Z,44.75
2018-12-04T05:57:57.349Z,44.75
2018-12-04T05:58:58.013Z,44.85
2018-12-04T05:59:57.352Z,44.75
2018-12-04T06:00:57.312Z,44.95
2018-12-04T06:01:57.306Z,44.95
2018-12-04T06:02:57.295Z,44.75
2018-12-04T06:03:57.308Z,44.85
2018-12-04T06:04:57.285Z,44.85
2018-12-04T06:05:57.259Z,44.95
2018-12-04T06:06:57.254Z,44.55
2018-12-04T06:07:57.238Z,44.85
2018-12-04T06:08:57.244Z,44.95
2018-12-04T06:09:57.232Z,44.95
2018-12-04T06:10:57.202Z,44.95
2018-12-04T06:11:57.196Z,44.65
2018-12-04T06:12:57.189Z,44.65
2018-12-04T06:13:57.183Z,44.75
2018-12-04T06:14:57.469Z,44.65
2018-12-04T06:15:57.153Z,44.85
2018-12-04T06:16:57.143Z,44.75
2018-12-04T06:17:57.137Z,44.65
2018-12-04T06:18:57.125Z,44.85
2018-12-04T06:19:57.134Z,44.65
2018-12-04T06:20:57.098Z,44.75
2018-12-04T06:21:57.949Z,44.75
2018-12-04T06:22:57.080Z,44.75
2018-12-04T06:23:57.070Z,44.75
2018-12-04T06:24:57.081Z,44.65
2018-12-04T06:25:57.045Z,43.85
2018-12-04T06:26:57.047Z,44.15
2018-12-04T06:27:57.965Z,44.25
2018-12-04T06:28:57.019Z,44.35
2018-12-04T06:29:57.030Z,44.35
2018-12-04T06:30:56.994Z,44.35
2018-12-04T06:31:57.000Z,44.55
2018-12-04T06:32:56.972Z,44.05
2018-12-04T06:33:56.965Z,44.65
2018-12-04T06:34:56.976Z,43.55
2018-12-04T06:35:56.955Z,43.55
2018-12-04T06:36:56.933Z,43.75
2018-12-04T06:37:56.931Z,44.25
2018-12-04T06:38:56.905Z,44.05
2018-12-04T06:39:56.951Z,44.15
2018-12-04T06:40:56.886Z,44.05
2018-12-04T06:41:56.882Z,43.65
2018-12-04T06:42:56.861Z,43.65
2018-12-04T06:43:56.862Z,43.25
2018-12-04T06:44:56.880Z,43.55
2018-12-04T06:45:56.839Z,43.75
2018-12-04T06:46:56.852Z,43.75
2018-12-04T06:47:57.462Z,43.45
2018-12-04T06:48:56.815Z,43.45
2018-12-04T06:49:56.810Z,43.25
2018-12-04T06:50:56.799Z,43.18
2018-12-04T06:51:56.761Z,43.25
2018-12-04T06:52:56.753Z,43.75
2018-12-04T06:53:57.447Z,43.55
2018-12-04T06:54:56.870Z,43.75
2018-12-04T06:55:57.614Z,43.45
2018-12-04T06:56:56.716Z,43.15
2018-12-04T06:57:56.698Z,43.45
2018-12-04T06:58:56.684Z,43.15
2018-12-04T06:59:56.743Z,43.05
2018-12-04T07:00:57.460Z,42.85
2018-12-04T07:01:56.662Z,42.76
2018-12-04T07:02:57.463Z,43.05
2018-12-04T07:03:56.629Z,42.65
2018-12-04T07:04:56.631Z,42.35
2018-12-04T07:05:56.982Z,42.25
2018-12-04T07:06:57.654Z,41.96
2018-12-04T07:07:56.638Z,42.25
2018-12-04T07:08:56.621Z,43.05
2018-12-04T07:09:57.469Z,42.25
2018-12-04T07:10:56.579Z,42.25
2018-12-04T07:12:02.312Z,42.46
2018-12-04T07:12:56.533Z,42.73
2018-12-04T07:13:56.526Z,42.25
2018-12-04T07:14:56.529Z,42.43
2018-12-04T07:15:56.510Z,42.43
2018-12-04T07:16:57.470Z,42.43
2018-12-04T07:17:56.483Z,42.33
2018-12-04T07:18:57.459Z,42.24
2018-12-04T07:19:56.460Z,42.43
2018-12-04T07:20:56.968Z,42.54
2018-12-04T07:21:56.444Z,41.93
2018-12-04T07:22:57.155Z,42.73
2018-12-04T07:23:56.412Z,42.13
2018-12-04T07:24:56.956Z,42.33
2018-12-04T07:25:56.473Z,41.93
2018-12-04T07:26:56.951Z,42.63
2018-12-04T07:27:56.367Z,42.54
2018-12-04T07:28:56.372Z,42.63
2018-12-04T07:29:57.005Z,42.63
2018-12-04T07:30:56.345Z,42.43
2018-12-04T07:31:56.330Z,42.93
2018-12-04T07:32:56.953Z,42.33
2018-12-04T07:33:56.300Z,41.93
2018-12-04T07:34:56.960Z,42.54
2018-12-04T07:35:56.461Z,42.63
2018-12-04T07:36:56.280Z,42.54
2018-12-04T07:37:56.954Z,42.51
2018-12-04T07:38:56.247Z,42.41
2018-12-04T07:39:56.235Z,42.51
2018-12-04T07:40:56.464Z,42.73
2018-12-04T07:41:56.952Z,42.61
2018-12-04T07:42:56.215Z,42.81
2018-12-04T07:43:56.201Z,42.91
2018-12-04T07:44:56.184Z,42.91
2018-12-04T07:45:56.193Z,43.01
2018-12-04T07:46:56.957Z,43.61
2018-12-04T07:47:56.149Z,43.23
2018-12-04T07:48:56.968Z,43.41
2018-12-04T07:49:56.169Z,43.43
2018-12-04T07:50:56.140Z,42.83
2018-12-04T07:51:56.110Z,43.03
2018-12-04T07:52:56.957Z,43.33
2018-12-04T07:53:56.951Z,43.53
2018-12-04T07:54:56.083Z,43.41
2018-12-04T07:55:56.076Z,43.83
2018-12-04T07:56:56.954Z,43.33
2018-12-04T07:57:56.954Z,43.53
2018-12-04T07:58:56.964Z,43.53
2018-12-04T07:59:56.027Z,43.43
2018-12-04T08:00:56.030Z,43.63
2018-12-04T08:01:55.997Z,43.43
2018-12-04T08:02:55.986Z,43.43
2018-12-04T08:03:55.977Z,43.53
2018-12-04T08:04:56.960Z,43.33
2018-12-04T08:05:56.472Z,43.33
2018-12-04T08:06:55.943Z,43.43
2018-12-04T08:07:55.933Z,43.73
2018-12-04T08:08:55.923Z,43.03
2018-12-04T08:09:55.915Z,44.03
2018-12-04T08:10:55.916Z,44.13
2018-12-04T08:11:56.461Z,43.83
2018-12-04T08:12:55.886Z,43.83
2018-12-04T08:13:56.455Z,43.53
2018-12-04T08:14:55.857Z,43.63
2018-12-04T08:15:55.861Z,43.65
2018-12-04T08:16:55.832Z,43.73
2018-12-04T08:17:55.828Z,43.95
2018-12-04T08:18:55.817Z,43.75
2018-12-04T08:19:55.802Z,44.03
2018-12-04T08:20:55.971Z,44.13
2018-12-04T08:21:55.777Z,44.25
2018-12-04T08:22:55.769Z,44.35
2018-12-04T08:23:56.458Z,44.55
2018-12-04T08:24:55.745Z,44.45
2018-12-04T08:25:55.891Z,44.55
2018-12-04T08:26:56.455Z,44.53
2018-12-04T08:27:55.711Z,44.25
2018-12-04T08:28:56.476Z,44.33
2018-12-04T08:29:56.469Z,44.35
2018-12-04T08:30:55.728Z,44.15
2018-12-04T08:31:55.680Z,44.25
2018-12-04T08:32:55.659Z,44.25
2018-12-04T08:33:55.648Z,44.25
2018-12-04T08:34:55.645Z,44.35
2018-12-04T08:35:55.977Z,44.45
2018-12-04T08:36:56.470Z,44.15
2018-12-04T08:37:56.457Z,43.95
2018-12-04T08:38:55.592Z,44.65
2018-12-04T08:39:55.649Z,44.15
2018-12-04T08:40:55.965Z,44.65
2018-12-04T08:41:55.569Z,44.75
2018-12-04T08:42:55.551Z,44.75
2018-12-04T08:43:55.606Z,44.85
2018-12-04T08:44:56.485Z,44.75
2018-12-04T08:45:55.559Z,45.95
2018-12-04T08:46:56.466Z,44.95
2018-12-04T08:47:56.465Z,45.45
2018-12-04T08:48:55.521Z,46.35
2018-12-04T08:49:55.476Z,45.45
2018-12-04T08:50:55.972Z,45.85
2018-12-04T08:51:55.962Z,46.33
2018-12-04T08:52:55.963Z,46.15
2018-12-04T08:53:55.527Z,46.05
2018-12-04T08:54:55.428Z,46.33
2018-12-04T08:55:55.441Z,46.62
2018-12-04T08:56:55.403Z,46.13
2018-12-04T08:57:55.403Z,46.53
2018-12-04T08:58:55.374Z,46.45
2018-12-04T08:59:55.957Z,46.15
2018-12-04T09:00:55.398Z,46.35
2018-12-04T09:01:55.349Z,46.45
2018-12-04T09:02:55.344Z,46.43
2018-12-04T09:03:59.132Z,46.33
2018-12-04T09:04:55.335Z,46.33
2018-12-04T09:05:55.362Z,46.03
2018-12-04T09:06:55.346Z,45.83
2018-12-04T09:07:55.977Z,46.43
2018-12-04T09:08:56.003Z,45.63
2018-12-04T09:09:55.958Z,45.43
2018-12-04T09:10:55.255Z,45.63
2018-12-04T09:11:55.254Z,45.63
2018-12-04T09:12:55.226Z,45.93
2018-12-04T09:13:55.972Z,45.63
2018-12-04T09:14:55.210Z,45.73
2018-12-04T09:15:55.252Z,45.33
2018-12-04T09:16:55.217Z,45.63
2018-12-04T09:17:55.181Z,45.13
2018-12-04T09:18:55.971Z,45.40
2018-12-04T09:19:55.194Z,45.53
2018-12-04T09:20:55.995Z,45.43
2018-12-04T09:21:55.163Z,45.31
2018-12-04T09:22:55.191Z,45.43
2018-12-04T09:23:55.963Z,45.43
2018-12-04T09:24:55.110Z,45.03
2018-12-04T09:25:56.013Z,44.91
2018-12-04T09:26:55.125Z,43.91
2018-12-04T09:27:55.910Z,44.33
2018-12-04T09:28:55.089Z,43.91
2018-12-04T09:29:55.056Z,43.91
2018-12-04T09:30:55.078Z,44.41
2018-12-04T09:31:55.040Z,44.71
2018-12-04T09:32:55.007Z,44.61
2018-12-04T09:33:54.996Z,44.61
2018-12-04T09:34:55.003Z,44.81
2018-12-04T09:35:55.973Z,44.61
2018-12-04T09:36:54.979Z,45.51
2018-12-04T09:37:54.963Z,45.61
2018-12-04T09:38:54.947Z,45.40
2018-12-04T09:39:54.933Z,45.39
2018-12-04T09:40:55.520Z,45.01
2018-12-04T09:41:54.920Z,45.39
2018-12-04T09:42:54.921Z,45.09
2018-12-04T09:43:55.462Z,45.81
2018-12-04T09:44:54.889Z,45.51
2018-12-04T09:45:54.933Z,45.78
2018-12-04T09:46:54.968Z,45.01
2018-12-04T09:47:55.459Z,45.10
2018-12-04T09:48:55.461Z,45.09
2018-12-04T09:49:55.486Z,45.18
2018-12-04T09:50:54.843Z,45.89
2018-12-04T09:51:54.815Z,45.59
2018-12-04T09:52:54.789Z,45.81
2018-12-04T09:53:55.464Z,45.68
2018-12-04T09:54:55.456Z,45.78
2018-12-04T09:55:54.768Z,45.78
2018-12-04T09:56:54.804Z,45.68
2018-12-04T09:57:54.752Z,45.89
2018-12-04T09:58:55.475Z,45.18
2018-12-04T09:59:54.734Z,45.59
2018-12-04T10:00:54.719Z,45.68
2018-12-04T10:01:55.483Z,45.59
2018-12-04T10:02:54.670Z,45.59
2018-12-04T10:03:54.659Z,45.98
2018-12-04T10:04:54.656Z,45.78
2018-12-04T10:05:54.640Z,46.38
2018-12-04T10:06:54.976Z,46.28
2018-12-04T10:07:54.618Z,45.78
2018-12-04T10:08:54.606Z,46.78
2018-12-04T10:10:00.473Z,46.38
2018-12-04T10:10:54.583Z,46.19
2018-12-04T10:11:54.596Z,46.28
2018-12-04T10:12:54.651Z,46.28
2018-12-04T10:13:55.479Z,46.58
2018-12-04T10:14:55.461Z,46.19
2018-12-04T10:15:54.525Z,46.08
2018-12-04T10:16:54.535Z,46.19
2018-12-04T10:17:54.506Z,46.58
2018-12-04T10:18:54.499Z,46.58
2018-12-04T10:19:54.485Z,46.38
2018-12-04T10:20:54.470Z,46.38
2018-12-04T10:21:54.482Z,46.58
2018-12-04T10:22:55.071Z,46.38
2018-12-04T10:23:55.003Z,45.89
2018-12-04T10:24:54.486Z,46.28
2018-12-04T10:25:54.447Z,46.58
2018-12-04T10:26:54.549Z,46.19
2018-12-04T10:27:55.015Z,46.28
2018-12-04T10:28:54.966Z,46.28
2018-12-04T10:29:54.961Z,46.08
2018-12-04T10:30:54.991Z,46.28
2018-12-04T10:31:56.157Z,46.28
2018-12-04T10:32:54.976Z,46.08
2018-12-04T10:33:54.963Z,46.28
2018-12-04T10:34:54.334Z,46.48
2018-12-04T10:35:54.321Z,46.28
2018-12-04T10:36:54.363Z,46.28
2018-12-04T10:37:54.351Z,46.38
2018-12-04T10:38:54.279Z,46.38
2018-12-04T10:39:54.286Z,46.08
2018-12-04T10:40:54.257Z,46.38
2018-12-04T10:41:54.267Z,46.28
2018-12-04T10:42:54.236Z,46.28
2018-12-04T10:43:54.226Z,46.28
2018-12-04T10:44:54.241Z,46.28
2018-12-04T10:45:54.967Z,46.19
2018-12-04T10:46:54.336Z,46.28
2018-12-04T10:47:54.192Z,46.08
2018-12-04T10:48:54.170Z,46.48
2018-12-04T10:49:54.168Z,46.08
2018-12-04T10:50:54.985Z,46.08
2018-12-04T10:51:54.182Z,46.08
2018-12-04T10:52:54.973Z,46.28
2018-12-04T10:53:54.116Z,46.19
2018-12-04T10:54:54.974Z,45.78
2018-12-04T10:55:54.961Z,46.38
2018-12-04T10:56:54.503Z,46.28
2018-12-04T10:57:55.001Z,46.19
2018-12-04T10:58:55.270Z,46.28
2018-12-04T10:59:54.051Z,46.58
2018-12-04T11:00:54.964Z,46.08
2018-12-04T11:01:54.496Z,46.28
2018-12-04T11:02:54.022Z,45.98
2018-12-04T11:03:54.981Z,46.08
2018-12-04T11:04:54.006Z,46.19
2018-12-04T11:05:53.994Z,46.08
2018-12-04T11:06:54.035Z,46.68
2018-12-04T11:07:53.970Z,46.48
2018-12-04T11:08:53.960Z,46.48
2018-12-04T11:09:53.976Z,46.58
2018-12-04T11:10:54.465Z,46.48
2018-12-04T11:11:53.971Z,46.38
2018-12-04T11:12:54.471Z,46.28
2018-12-04T11:13:54.462Z,46.38
2018-12-04T11:14:53.900Z,46.38
2018-12-04T11:15:53.888Z,46.19
2018-12-04T11:16:53.878Z,46.08
2018-12-04T11:17:53.919Z,46.19
2018-12-04T11:18:53.851Z,47.08
2018-12-04T11:19:53.840Z,46.19
2018-12-04T11:20:53.840Z,46.08
2018-12-04T11:21:53.821Z,46.78
2018-12-04T11:22:53.850Z,46.98
2018-12-04T11:23:53.803Z,46.48
2018-12-04T11:24:54.471Z,46.88
2018-12-04T11:25:54.469Z,46.58
2018-12-04T11:26:53.770Z,46.38
2018-12-04T11:27:53.783Z,46.48
2018-12-04T11:28:53.828Z,46.78
2018-12-04T11:29:54.495Z,46.78
2018-12-04T11:30:53.731Z,46.58
2018-12-04T11:31:54.499Z,46.68
2018-12-04T11:32:53.736Z,46.88
2018-12-04T11:33:53.695Z,47.58
2018-12-04T11:34:54.467Z,46.98
2018-12-04T11:35:54.473Z,46.58
2018-12-04T11:36:53.661Z,46.68
2018-12-04T11:37:53.982Z,46.78
2018-12-04T11:38:53.678Z,46.68
2018-12-04T11:39:54.461Z,46.68
2018-12-04T11:40:53.617Z,46.68
2018-12-04T11:41:54.502Z,46.68
2018-12-04T11:42:53.973Z,46.68
2018-12-04T11:43:54.465Z,46.58
2018-12-04T11:44:53.571Z,46.48
2018-12-04T11:45:53.716Z,46.58
2018-12-04T11:46:54.468Z,46.36
2018-12-04T11:47:53.564Z,46.66
2018-12-04T11:48:53.556Z,46.48
2018-12-04T11:49:53.527Z,47.06
2018-12-04T11:50:53.529Z,46.08
2018-12-04T11:51:53.559Z,46.26
2018-12-04T11:52:53.513Z,46.46
2018-12-04T11:53:54.564Z,46.06
2018-12-04T11:54:53.476Z,46.08
2018-12-04T11:55:53.455Z,46.28
2018-12-04T11:56:54.054Z,46.28
2018-12-04T11:57:53.449Z,46.28
2018-12-04T11:58:53.426Z,46.28
2018-12-04T11:59:53.413Z,46.28
2018-12-04T12:00:53.432Z,46.28
2018-12-04T12:01:53.400Z,46.26
2018-12-04T12:02:53.483Z,46.06
2018-12-04T12:03:53.393Z,46.36
2018-12-04T12:04:53.980Z,46.08
2018-12-04T12:05:53.985Z,46.06
2018-12-04T12:06:53.341Z,46.19
2018-12-04T12:07:53.436Z,45.96
2018-12-04T12:08:53.314Z,46.16
2018-12-04T12:09:53.314Z,46.08
2018-12-04T12:10:53.988Z,46.08
2018-12-04T12:11:53.969Z,46.46
2018-12-04T12:12:53.319Z,46.26
2018-12-04T12:13:53.988Z,46.26
2018-12-04T12:14:53.260Z,46.68
2018-12-04T12:15:53.975Z,46.66
2018-12-04T12:16:53.969Z,46.36
2018-12-04T12:17:53.278Z,46.19
2018-12-04T12:18:53.225Z,46.66
2018-12-04T12:19:53.199Z,46.76
2018-12-04T12:20:53.185Z,46.86
2018-12-04T12:21:53.182Z,46.86
2018-12-04T12:22:53.194Z,46.76
2018-12-04T12:23:53.973Z,47.06
2018-12-04T12:24:53.140Z,46.66
2018-12-04T12:25:53.970Z,46.46
2018-12-04T12:26:53.966Z,46.46
2018-12-04T12:27:54.012Z,46.46
2018-12-04T12:28:53.991Z,46.76
2018-12-04T12:29:53.093Z,46.56
2018-12-04T12:30:53.105Z,46.46
2018-12-04T12:31:53.064Z,46.58
2018-12-04T12:32:53.082Z,46.46
2018-12-04T12:33:53.045Z,46.58
2018-12-04T12:34:53.042Z,46.36
2018-12-04T12:35:53.144Z,46.46
2018-12-04T12:36:53.971Z,46.56
2018-12-04T12:37:53.047Z,46.58
2018-12-04T12:38:52.992Z,46.78
2018-12-04T12:39:52.982Z,46.58
2018-12-04T12:40:52.970Z,46.66
2018-12-04T12:41:53.471Z,46.58
2018-12-04T12:42:53.010Z,46.48
2018-12-04T12:43:53.475Z,46.58
2018-12-04T12:44:53.058Z,46.28
2018-12-04T12:45:53.487Z,46.58
2018-12-04T12:46:52.904Z,46.78
2018-12-04T12:47:52.983Z,46.58
2018-12-04T12:48:52.912Z,46.58
2018-12-04T12:49:52.872Z,46.38
2018-12-04T12:50:53.469Z,46.48
2018-12-04T12:51:52.845Z,46.28